Time;durP1;ratioP1;P1;durP2;ratioP2;P2;SDS_P1;SDS_P2;PMS_P1;PMS_P2;Temp;Humidity;BMP_temperature;BMP_pressure;BME280_temperature;BME280_humidity;BME280_pressure;Samples;Min_cycle;Max_cycle;Signal;HPM_P1;HPM_P2
2023/12/07 00:00:49;;;;;;;17.00;15.20;;;;;;;;;;5068037;28;20460;-53
2023/12/07 00:03:16;;;;;;;19.70;17.10;;;;;;;;;;5068232;28;20660;-56
2023/12/07 00:05:43;;;;;;;25.73;20.10;;;;;;;;;;5068682;28;20434;-54
2023/12/07 00:08:11;;;;;;;26.30;21.37;;;;;;;;;;5067421;28;20438;-54
2023/12/07 00:10:40;;;;;;;29.23;21.57;;;;;;;;;;5068367;28;20564;-55
2023/12/07 00:13:07;;;;;;;32.10;25.67;;;;;;;;;;5067947;28;20483;-53
2023/12/07 00:15:35;;;;;;;50.00;31.03;;;;;;;;;;5069112;28;20441;-55
2023/12/07 00:18:02;;;;;;;34.77;26.50;;;;;;;;;;5067700;28;20543;-52
2023/12/07 00:20:30;;;;;;;44.30;27.83;;;;;;;;;;5068851;28;20461;-54
2023/12/07 00:22:57;;;;;;;35.47;25.00;;;;;;;;;;5067613;28;20482;-56
2023/12/07 00:25:24;;;;;;;32.30;24.40;;;;;;;;;;5069042;28;20436;-54
2023/12/07 00:27:53;;;;;;;30.17;21.40;;;;;;;;;;5068255;28;20440;-52
2023/12/07 00:30:20;;;;;;;23.60;18.70;;;;;;;;;;5068785;28;20480;-54
2023/12/07 00:32:48;;;;;;;19.27;17.03;;;;;;;;;;5068698;28;20460;-54
2023/12/07 00:35:16;;;;;;;18.80;16.30;;;;;;;;;;5068238;28;20441;-53
2023/12/07 00:37:43;;;;;;;17.40;15.43;;;;;;;;;;5068789;28;20445;-55
2023/12/07 00:40:12;;;;;;;23.30;16.20;;;;;;;;;;5068124;28;20480;-55
2023/12/07 00:42:39;;;;;;;18.80;16.00;;;;;;;;;;5069051;28;20559;-53
2023/12/07 00:45:08;;;;;;;17.73;14.30;;;;;;;;;;5068028;28;20449;-54
2023/12/07 00:47:36;;;;;;;15.90;13.80;;;;;;;;;;5068544;28;20444;-53
2023/12/07 00:50:03;;;;;;;20.13;15.67;;;;;;;;;;5067225;28;21047;-55
2023/12/07 00:52:30;;;;;;;16.93;12.80;;;;;;;;;;5068983;28;20499;-55
2023/12/07 00:54:58;;;;;;;12.80;11.47;;;;;;;;;;5068594;28;20468;-56
2023/12/07 00:57:26;;;;;;;12.00;10.33;;;;;;;;;;5069530;28;20436;-57
2023/12/07 00:59:53;;;;;;;13.53;10.93;;;;;;;;;;5068725;28;20473;-54
2023/12/07 01:02:22;;;;;;;14.80;11.70;;;;;;;;;;5069534;28;20776;-57
2023/12/07 01:04:49;;;;;;;13.30;11.00;;;;;;;;;;5069093;28;20922;-54
2023/12/07 01:07:17;;;;;;;10.03;8.30;;;;;;;;;;5069420;28;20436;-53
2023/12/07 01:09:44;;;;;;;10.50;7.73;;;;;;;;;;5069197;28;20506;-53
2023/12/07 01:12:11;;;;;;;10.00;8.80;;;;;;;;;;5069344;28;20484;-55
2023/12/07 01:14:38;;;;;;;22.07;15.57;;;;;;;;;;5069027;28;20444;-53
2023/12/07 01:17:06;;;;;;;35.30;20.47;;;;;;;;;;5068146;28;20519;-56
2023/12/07 01:19:35;;;;;;;40.83;22.07;;;;;;;;;;5068326;28;20892;-56
2023/12/07 01:22:02;;;;;;;24.53;17.63;;;;;;;;;;5068297;28;20554;-56
2023/12/07 01:24:30;;;;;;;27.00;18.40;;;;;;;;;;5068252;28;20445;-55
2023/12/07 01:26:57;;;;;;;36.40;20.80;;;;;;;;;;5067834;28;20528;-54
2023/12/07 01:29:25;;;;;;;22.13;17.97;;;;;;;;;;5068063;28;20467;-57
2023/12/07 01:31:52;;;;;;;25.13;18.70;;;;;;;;;;5069194;28;20545;-58
2023/12/07 01:34:20;;;;;;;27.30;18.17;;;;;;;;;;5053921;28;20486;-53
2023/12/07 01:36:48;;;;;;;23.50;18.27;;;;;;;;;;5069726;28;20837;-55
2023/12/07 01:39:16;;;;;;;26.43;20.00;;;;;;;;;;5068970;28;20876;-54
2023/12/07 01:41:43;;;;;;;27.30;19.20;;;;;;;;;;5062205;28;20529;-56
2023/12/07 01:44:11;;;;;;;26.47;18.17;;;;;;;;;;5048837;28;20894;-55
2023/12/07 01:46:38;;;;;;;23.87;18.50;;;;;;;;;;5050130;28;20566;-54
2023/12/07 01:49:05;;;;;;;20.30;17.37;;;;;;;;;;5105683;22;20456;-54
2023/12/07 01:51:33;;;;;;;23.40;17.10;;;;;;;;;;5024841;28;20899;-54
2023/12/07 01:59:11;;;;;;;25.77;18.10;;;;;;;;;;5069093;27;20630;-54
2023/12/07 02:01:38;;;;;;;23.33;18.50;;;;;;;;;;5068357;28;20448;-54
2023/12/07 02:04:06;;;;;;;23.30;18.60;;;;;;;;;;5068256;28;20443;-55
2023/12/07 02:06:33;;;;;;;21.50;16.70;;;;;;;;;;5068131;28;20436;-54
2023/12/07 02:09:01;;;;;;;25.90;17.50;;;;;;;;;;5068070;28;20858;-55
2023/12/07 02:11:29;;;;;;;23.77;17.70;;;;;;;;;;5068374;28;20535;-54
2023/12/07 02:13:57;;;;;;;20.07;16.30;;;;;;;;;;5068418;28;20440;-55
2023/12/07 02:16:29;;;;;;;23.97;17.63;;;;;;;;;;5068601;28;20581;-54
2023/12/07 02:21:38;;;;;;;25.97;18.70;;;;;;;;;;5108297;27;20809;-54
2023/12/07 02:26:41;;;;;;;22.37;19.40;;;;;;;;;;5087313;27;20632;-54
2023/12/07 02:29:08;;;;;;;27.03;17.77;;;;;;;;;;5086176;28;20456;-54
2023/12/07 02:31:35;;;;;;;24.63;17.97;;;;;;;;;;5087486;28;20440;-55
2023/12/07 02:34:03;;;;;;;23.23;16.90;;;;;;;;;;5087174;28;20444;-55
2023/12/07 02:36:31;;;;;;;20.67;17.40;;;;;;;;;;5087180;28;20458;-54
2023/12/07 02:41:34;;;;;;;23.57;18.00;;;;;;;;;;5087141;27;21072;-54
2023/12/07 02:46:36;;;;;;;23.40;18.70;;;;;;;;;;5087819;27;21138;-54
2023/12/07 02:49:03;;;;;;;21.67;15.07;;;;;;;;;;5085598;28;20457;-54
2023/12/07 02:51:30;;;;;;;24.17;17.77;;;;;;;;;;5067559;28;20449;-54
2023/12/07 02:53:58;;;;;;;21.00;17.30;;;;;;;;;;5066853;28;20448;-55
2023/12/07 02:56:25;;;;;;;21.90;17.83;;;;;;;;;;5067306;28;20472;-54
2023/12/07 02:58:52;;;;;;;26.07;18.30;;;;;;;;;;5066169;28;20788;-55
2023/12/07 03:01:20;;;;;;;21.90;17.37;;;;;;;;;;5066753;28;20885;-54
2023/12/07 03:03:48;;;;;;;25.60;19.07;;;;;;;;;;5066902;28;20444;-55
2023/12/07 03:06:17;;;;;;;24.10;18.70;;;;;;;;;;5066267;28;20476;-54
2023/12/07 03:08:44;;;;;;;25.30;18.67;;;;;;;;;;5066470;28;20539;-54
2023/12/07 03:11:11;;;;;;;28.53;17.83;;;;;;;;;;5066183;28;20916;-54
2023/12/07 03:13:39;;;;;;;24.63;18.53;;;;;;;;;;5066665;28;20448;-55
2023/12/07 03:16:08;;;;;;;25.80;19.53;;;;;;;;;;5066399;28;20445;-54
2023/12/07 03:18:35;;;;;;;29.63;20.40;;;;;;;;;;5066163;28;20445;-54
2023/12/07 03:21:05;;;;;;;34.80;23.00;;;;;;;;;;5065983;28;20989;-54
2023/12/07 03:23:32;;;;;;;23.70;18.60;;;;;;;;;;5066325;28;20444;-54
2023/12/07 03:25:59;;;;;;;29.40;19.70;;;;;;;;;;5066354;28;20480;-54
2023/12/07 03:28:27;;;;;;;25.83;17.97;;;;;;;;;;5065821;28;20495;-54
2023/12/07 03:30:54;;;;;;;22.17;17.57;;;;;;;;;;5065689;28;20878;-54
2023/12/07 03:33:21;;;;;;;20.67;15.87;;;;;;;;;;5065990;28;20509;-54
2023/12/07 03:35:49;;;;;;;20.70;15.90;;;;;;;;;;5066149;28;20856;-54
2023/12/07 03:40:53;;;;;;;18.80;14.40;;;;;;;;;;5107407;27;20984;-54
2023/12/07 03:43:21;;;;;;;19.47;14.63;;;;;;;;;;5091877;28;20443;-54
2023/12/07 03:45:48;;;;;;;19.80;15.10;;;;;;;;;;5090782;28;20463;-54
2023/12/07 03:48:15;;;;;;;29.30;16.07;;;;;;;;;;5091646;28;20932;-54
2023/12/07 03:50:43;;;;;;;23.10;16.00;;;;;;;;;;5090666;28;20452;-54
2023/12/07 03:53:10;;;;;;;22.33;17.00;;;;;;;;;;5091962;28;20948;-55
2023/12/07 03:55:37;;;;;;;22.53;16.60;;;;;;;;;;5091202;28;20514;-54
2023/12/07 03:58:06;;;;;;;23.40;17.60;;;;;;;;;;5092229;28;20801;-54
2023/12/07 04:00:34;;;;;;;20.40;18.03;;;;;;;;;;5085087;28;20491;-54
2023/12/07 04:03:01;;;;;;;23.47;18.93;;;;;;;;;;5092347;28;20439;-55
2023/12/07 04:05:28;;;;;;;21.40;17.23;;;;;;;;;;5091374;28;20991;-54
2023/12/07 04:07:55;;;;;;;25.80;17.23;;;;;;;;;;5091493;28;20440;-54
2023/12/07 04:10:23;;;;;;;24.03;17.80;;;;;;;;;;5091801;28;21000;-55
2023/12/07 04:12:52;;;;;;;24.60;18.77;;;;;;;;;;5090910;28;20440;-54
2023/12/07 04:15:21;;;;;;;23.20;16.83;;;;;;;;;;5089217;28;20442;-55
2023/12/07 04:17:48;;;;;;;20.30;16.97;;;;;;;;;;5090980;28;20439;-54
2023/12/07 04:20:16;;;;;;;20.97;15.90;;;;;;;;;;5092489;28;20852;-55
2023/12/07 04:22:45;;;;;;;19.87;15.30;;;;;;;;;;5091008;28;20440;-54
2023/12/07 04:25:12;;;;;;;20.50;15.20;;;;;;;;;;5093026;28;20438;-54
2023/12/07 04:27:40;;;;;;;22.50;15.50;;;;;;;;;;5091047;28;20441;-54
2023/12/07 04:30:08;;;;;;;17.80;15.03;;;;;;;;;;5092806;28;20448;-54
2023/12/07 04:32:38;;;;;;;17.90;14.37;;;;;;;;;;5091090;28;20775;-54
2023/12/07 04:35:06;;;;;;;17.90;15.50;;;;;;;;;;5092894;28;20441;-54
2023/12/07 04:37:33;;;;;;;19.07;14.97;;;;;;;;;;5090844;28;20453;-55
2023/12/07 04:45:09;;;;;;;17.93;15.07;;;;;;;;;;5087489;27;20641;-55
2023/12/07 04:47:36;;;;;;;19.20;15.30;;;;;;;;;;5072111;28;20823;-54
2023/12/07 04:50:04;;;;;;;19.37;14.77;;;;;;;;;;5069670;28;20457;-54
2023/12/07 04:55:06;;;;;;;17.47;14.60;;;;;;;;;;5085993;27;20568;-54
2023/12/07 05:00:09;;;;;;;19.70;15.60;;;;;;;;;;5107043;27;20635;-54
2023/12/07 05:02:37;;;;;;;23.83;16.83;;;;;;;;;;5092197;28;20436;-54
2023/12/07 05:07:40;;;;;;;19.73;15.50;;;;;;;;;;5128268;27;20560;-55
2023/12/07 05:10:08;;;;;;;18.83;16.30;;;;;;;;;;5127614;27;21006;-54
2023/12/07 05:12:35;;;;;;;21.40;15.77;;;;;;;;;;5126822;27;20438;-54
2023/12/07 05:15:04;;;;;;;19.40;14.63;;;;;;;;;;5126523;27;20443;-54
2023/12/07 05:17:31;;;;;;;18.03;15.63;;;;;;;;;;5126619;27;20789;-55
2023/12/07 05:19:58;;;;;;;19.23;14.43;;;;;;;;;;5126250;27;21024;-55
2023/12/07 05:22:26;;;;;;;20.77;14.47;;;;;;;;;;5126527;27;21002;-54
2023/12/07 05:24:54;;;;;;;18.20;15.53;;;;;;;;;;5126509;27;20434;-55
2023/12/07 05:27:22;;;;;;;19.23;14.83;;;;;;;;;;5126552;27;20997;-54
2023/12/07 05:32:23;;;;;;;22.20;17.73;;;;;;;;;;5086440;27;20628;-54
2023/12/07 05:34:51;;;;;;;22.63;18.30;;;;;;;;;;5086040;28;20441;-54
2023/12/07 05:37:18;;;;;;;28.47;21.63;;;;;;;;;;5082858;28;20435;-54
2023/12/07 05:39:45;;;;;;;27.57;21.10;;;;;;;;;;5085724;28;20872;-55
2023/12/07 05:42:13;;;;;;;26.37;21.03;;;;;;;;;;5086032;28;20431;-54
2023/12/07 05:44:40;;;;;;;27.37;20.37;;;;;;;;;;5081637;28;20809;-55
2023/12/07 05:49:41;;;;;;;25.33;17.67;;;;;;;;;;5100955;27;20621;-54
2023/12/07 05:52:08;;;;;;;22.67;16.20;;;;;;;;;;5087976;28;20910;-55
2023/12/07 05:54:36;;;;;;;27.73;17.70;;;;;;;;;;5087203;28;20458;-54
2023/12/07 05:57:03;;;;;;;21.23;16.93;;;;;;;;;;5086922;28;20911;-54
2023/12/07 05:59:30;;;;;;;23.73;17.57;;;;;;;;;;5086769;28;20459;-54
2023/12/07 06:01:58;;;;;;;22.47;17.80;;;;;;;;;;5086554;28;20918;-54
2023/12/07 06:04:25;;;;;;;28.23;20.13;;;;;;;;;;5090709;28;20443;-54
2023/12/07 06:06:54;;;;;;;21.70;17.87;;;;;;;;;;5093331;28;20919;-54
2023/12/07 06:09:21;;;;;;;22.20;18.40;;;;;;;;;;5092751;28;20498;-54
2023/12/07 06:11:48;;;;;;;25.73;20.30;;;;;;;;;;5093278;28;20436;-54
2023/12/07 06:14:16;;;;;;;24.73;17.57;;;;;;;;;;5084238;28;20459;-54
2023/12/07 06:16:43;;;;;;;23.73;18.67;;;;;;;;;;5085080;28;20433;-54
2023/12/07 06:19:10;;;;;;;24.87;20.77;;;;;;;;;;5084425;28;20504;-54
2023/12/07 06:21:38;;;;;;;23.90;19.17;;;;;;;;;;5085933;28;20447;-55
2023/12/07 06:24:07;;;;;;;19.27;16.40;;;;;;;;;;5085091;28;20432;-55
2023/12/07 06:26:34;;;;;;;25.87;19.77;;;;;;;;;;5086645;28;20551;-54
2023/12/07 06:29:01;;;;;;;24.67;18.40;;;;;;;;;;5085483;28;20525;-55
2023/12/07 06:31:29;;;;;;;25.17;18.33;;;;;;;;;;5085944;28;20886;-55
2023/12/07 06:33:56;;;;;;;22.93;17.67;;;;;;;;;;5085290;28;20864;-55
2023/12/07 06:36:25;;;;;;;23.40;17.67;;;;;;;;;;5086290;28;20569;-54
2023/12/07 06:38:53;;;;;;;26.87;19.00;;;;;;;;;;5085689;28;20947;-54
2023/12/07 06:41:21;;;;;;;25.50;19.00;;;;;;;;;;5086132;28;20953;-55
2023/12/07 06:43:49;;;;;;;25.77;18.23;;;;;;;;;;5086619;28;20444;-54
2023/12/07 06:46:17;;;;;;;24.10;17.77;;;;;;;;;;5085935;28;20432;-54
2023/12/07 06:48:44;;;;;;;27.80;19.30;;;;;;;;;;5086071;28;20559;-54
2023/12/07 06:51:12;;;;;;;25.07;18.23;;;;;;;;;;5084811;28;20528;-55
2023/12/07 06:53:40;;;;;;;24.33;18.70;;;;;;;;;;5084461;28;20447;-55
2023/12/07 06:56:07;;;;;;;25.20;19.47;;;;;;;;;;5084530;28;20486;-54
2023/12/07 06:58:36;;;;;;;27.80;20.80;;;;;;;;;;5085075;28;20872;-55
2023/12/07 07:01:04;;;;;;;28.03;20.00;;;;;;;;;;5071432;28;20966;-54
2023/12/07 07:03:31;;;;;;;27.03;19.70;;;;;;;;;;5072596;28;20442;-55
2023/12/07 07:05:59;;;;;;;27.20;20.20;;;;;;;;;;5072583;28;20444;-54
2023/12/07 07:08:26;;;;;;;29.87;21.10;;;;;;;;;;5072297;28;20479;-54
2023/12/07 07:10:53;;;;;;;32.40;20.87;;;;;;;;;;5071695;28;20461;-55
2023/12/07 07:13:21;;;;;;;26.67;20.70;;;;;;;;;;5071344;28;20445;-54
2023/12/07 07:15:49;;;;;;;30.03;21.00;;;;;;;;;;5071281;28;20453;-54
2023/12/07 07:18:17;;;;;;;34.03;20.53;;;;;;;;;;5070678;28;20449;-54
2023/12/07 07:20:44;;;;;;;26.87;19.47;;;;;;;;;;5072015;28;20472;-55
2023/12/07 07:23:12;;;;;;;29.27;20.07;;;;;;;;;;5071821;28;20543;-54
2023/12/07 07:25:39;;;;;;;31.40;19.50;;;;;;;;;;5072174;28;20451;-55
2023/12/07 07:28:07;;;;;;;28.20;19.97;;;;;;;;;;5071797;28;20512;-54
2023/12/07 07:30:35;;;;;;;25.70;19.17;;;;;;;;;;5071934;28;20980;-55
2023/12/07 07:33:03;;;;;;;30.00;19.70;;;;;;;;;;5072074;28;20498;-55
2023/12/07 07:35:31;;;;;;;25.20;18.23;;;;;;;;;;5072482;28;20455;-55
2023/12/07 07:37:58;;;;;;;25.57;19.20;;;;;;;;;;5071931;28;20448;-55
2023/12/07 07:40:25;;;;;;;26.00;18.90;;;;;;;;;;5071737;28;20477;-54
2023/12/07 07:48:00;;;;;;;26.73;18.40;;;;;;;;;;5088206;27;20633;-55
2023/12/07 07:50:28;;;;;;;26.60;17.77;;;;;;;;;;5062179;22;21002;-88
2023/12/07 07:52:56;;;;;;;24.07;16.80;;;;;;;;;;5029880;28;20467;-89
2023/12/07 07:55:23;;;;;;;22.90;17.40;;;;;;;;;;5029134;28;20463;-89
2023/12/07 07:57:51;;;;;;;21.30;15.97;;;;;;;;;;5028489;28;20447;-89
2023/12/07 08:00:19;;;;;;;23.00;18.37;;;;;;;;;;5027762;28;20450;-89
2023/12/07 08:02:46;;;;;;;21.20;16.47;;;;;;;;;;5013549;28;20475;-89
2023/12/07 08:05:15;;;;;;;16.40;11.60;;;;;;;;;;5042058;22;20866;-57
2023/12/07 08:07:42;;;;;;;6.87;5.90;;;;;;;;;;5027738;28;20565;-54
2023/12/07 08:10:10;;;;;;;7.73;6.00;;;;;;;;;;5019025;28;20527;-56
2023/12/07 08:12:38;;;;;;;10.03;7.87;;;;;;;;;;5013980;28;20509;-55
2023/12/07 08:15:10;;;;;;;15.87;11.40;;;;;;;;;;5027100;28;20446;-55
2023/12/07 08:17:38;;;;;;;9.20;6.80;;;;;;;;;;5027212;28;20964;-54
2023/12/07 08:20:07;;;;;;;10.47;6.97;;;;;;;;;;5026826;28;20509;-55
2023/12/07 08:22:35;;;;;;;9.00;5.87;;;;;;;;;;5026928;28;20446;-55
2023/12/07 08:25:05;;;;;;;10.10;6.20;;;;;;;;;;5027210;28;20446;-53
2023/12/07 08:27:32;;;;;;;8.97;6.13;;;;;;;;;;5026975;28;20486;-55
2023/12/07 08:29:59;;;;;;;8.97;6.77;;;;;;;;;;5026368;28;20469;-55
2023/12/07 08:32:27;;;;;;;11.47;7.40;;;;;;;;;;5026792;28;20987;-56
2023/12/07 08:34:54;;;;;;;9.47;6.77;;;;;;;;;;5026723;28;20450;-56
2023/12/07 08:37:21;;;;;;;10.47;7.40;;;;;;;;;;5026759;28;20454;-54
2023/12/07 08:39:50;;;;;;;12.40;9.37;;;;;;;;;;5026411;28;20992;-57
2023/12/07 08:42:17;;;;;;;9.57;7.00;;;;;;;;;;5026930;28;20991;-56
2023/12/07 08:44:45;;;;;;;10.03;6.83;;;;;;;;;;5026323;28;20459;-53
2023/12/07 08:49:46;;;;;;;22.87;15.83;;;;;;;;;;5108204;27;20614;-55
2023/12/07 08:52:13;;;;;;;19.60;15.10;;;;;;;;;;5107050;28;20956;-57
2023/12/07 08:54:41;;;;;;;23.17;17.10;;;;;;;;;;5108329;28;20439;-53
2023/12/07 08:57:08;;;;;;;22.20;17.47;;;;;;;;;;5102286;28;20936;-54
2023/12/07 08:59:35;;;;;;;18.80;14.03;;;;;;;;;;5107239;28;20922;-55
2023/12/07 09:02:03;;;;;;;8.93;6.30;;;;;;;;;;5100312;28;20486;-54
2023/12/07 09:04:30;;;;;;;7.57;4.57;;;;;;;;;;5107628;28;20825;-56
2023/12/07 09:06:59;;;;;;;7.37;5.13;;;;;;;;;;5100571;28;20506;-56
2023/12/07 09:09:26;;;;;;;5.60;4.53;;;;;;;;;;5107088;28;20457;-55
2023/12/07 09:11:53;;;;;;;5.80;4.07;;;;;;;;;;5106249;28;20523;-55
2023/12/07 09:14:22;;;;;;;6.40;4.63;;;;;;;;;;5105841;28;20584;-54
2023/12/07 09:16:49;;;;;;;6.07;4.37;;;;;;;;;;5105661;28;20443;-56
2023/12/07 09:19:16;;;;;;;9.03;6.60;;;;;;;;;;5106014;28;20837;-55
2023/12/07 09:21:43;;;;;;;3.87;3.10;;;;;;;;;;5107024;28;20500;-53
2023/12/07 09:24:12;;;;;;;6.03;4.10;;;;;;;;;;5106102;28;20923;-56
2023/12/07 09:26:39;;;;;;;6.50;4.80;;;;;;;;;;5097845;28;20663;-54
2023/12/07 09:29:08;;;;;;;5.13;3.63;;;;;;;;;;5100840;28;20477;-55
2023/12/07 09:31:35;;;;;;;3.93;2.70;;;;;;;;;;5099138;28;20450;-55
2023/12/07 09:34:03;;;;;;;5.10;3.10;;;;;;;;;;5105902;28;20491;-54
2023/12/07 09:36:30;;;;;;;5.67;3.23;;;;;;;;;;5102564;28;20874;-55
2023/12/07 09:38:57;;;;;;;4.87;3.30;;;;;;;;;;5104730;28;20479;-57
2023/12/07 09:41:28;;;;;;;8.43;5.43;;;;;;;;;;5103406;28;20506;-53
2023/12/07 09:43:55;;;;;;;9.33;6.97;;;;;;;;;;5104782;28;20942;-54
2023/12/07 09:46:22;;;;;;;5.37;3.10;;;;;;;;;;5106135;28;20443;-54
2023/12/07 09:48:50;;;;;;;3.00;1.77;;;;;;;;;;5093002;28;20451;-55
2023/12/07 09:51:18;;;;;;;3.03;2.10;;;;;;;;;;5100688;28;20539;-54
2023/12/07 09:53:47;;;;;;;3.47;1.70;;;;;;;;;;5102944;28;20450;-53
2023/12/07 09:56:14;;;;;;;3.33;2.57;;;;;;;;;;5102343;28;20516;-55
2023/12/07 09:58:43;;;;;;;3.87;2.70;;;;;;;;;;5102174;28;20471;-53
2023/12/07 10:01:13;;;;;;;4.30;2.90;;;;;;;;;;5090013;28;20495;-56
2023/12/07 10:03:41;;;;;;;3.30;2.53;;;;;;;;;;5091175;28;20482;-57
2023/12/07 10:06:08;;;;;;;5.40;3.57;;;;;;;;;;5090620;28;20448;-55
2023/12/07 10:08:37;;;;;;;7.13;5.93;;;;;;;;;;5092516;28;20926;-55
2023/12/07 10:11:05;;;;;;;8.10;5.57;;;;;;;;;;5092409;28;20555;-55
2023/12/07 10:13:32;;;;;;;6.60;4.50;;;;;;;;;;5092954;28;20821;-54
2023/12/07 10:18:39;;;;;;;5.03;4.33;;;;;;;;;;5087801;27;20579;-55
2023/12/07 10:21:07;;;;;;;6.10;4.40;;;;;;;;;;5071073;28;20998;-53
2023/12/07 10:23:35;;;;;;;5.10;4.30;;;;;;;;;;5084900;28;20444;-55
2023/12/07 10:26:02;;;;;;;6.33;4.30;;;;;;;;;;5084296;28;20445;-54
2023/12/07 10:28:30;;;;;;;10.50;6.40;;;;;;;;;;5085601;28;20830;-55
2023/12/07 10:30:59;;;;;;;4.10;3.43;;;;;;;;;;5082909;28;20517;-54
2023/12/07 10:33:27;;;;;;;3.87;3.07;;;;;;;;;;5085633;28;20552;-56
2023/12/07 10:35:56;;;;;;;4.80;3.10;;;;;;;;;;5086899;28;20546;-53
2023/12/07 10:38:24;;;;;;;4.40;3.47;;;;;;;;;;5087108;28;20435;-53
2023/12/07 10:43:29;;;;;;;6.30;4.00;;;;;;;;;;5108123;27;21057;-55
2023/12/07 10:45:56;;;;;;;6.10;4.00;;;;;;;;;;5107668;28;20932;-55
2023/12/07 10:48:24;;;;;;;6.17;4.90;;;;;;;;;;5107650;28;20443;-54
2023/12/07 10:50:55;;;;;;;5.73;3.87;;;;;;;;;;5107421;28;20981;-56
2023/12/07 10:53:24;;;;;;;4.67;3.70;;;;;;;;;;5105945;28;20553;-55
2023/12/07 10:55:54;;;;;;;5.00;3.17;;;;;;;;;;5088310;28;20504;-55
2023/12/07 10:58:25;;;;;;;3.83;2.50;;;;;;;;;;5099882;28;20450;-55
2023/12/07 11:00:54;;;;;;;4.60;2.70;;;;;;;;;;5090970;28;20509;-54
2023/12/07 11:03:22;;;;;;;3.70;2.77;;;;;;;;;;5083632;28;20497;-53
2023/12/07 11:05:49;;;;;;;3.90;3.10;;;;;;;;;;5086639;28;20451;-55
2023/12/07 11:08:20;;;;;;;5.80;3.93;;;;;;;;;;5086509;28;20441;-54
2023/12/07 11:11:00;;;;;;;4.30;3.63;;;;;;;;;;5082496;28;20463;-53
2023/12/07 11:13:30;;;;;;;4.10;3.60;;;;;;;;;;5085647;28;20474;-53
2023/12/07 11:15:59;;;;;;;6.17;4.13;;;;;;;;;;5087112;28;20432;-53
2023/12/07 11:18:27;;;;;;;6.00;4.90;;;;;;;;;;5094603;28;20447;-53
2023/12/07 11:20:55;;;;;;;5.53;4.07;;;;;;;;;;5099206;28;20771;-55
2023/12/07 11:23:22;;;;;;;4.13;3.50;;;;;;;;;;5105557;28;20842;-54
2023/12/07 11:25:51;;;;;;;4.47;3.57;;;;;;;;;;5105772;28;20539;-54
2023/12/07 11:28:18;;;;;;;3.67;2.57;;;;;;;;;;5097973;28;20522;-54
2023/12/07 11:30:46;;;;;;;4.10;2.70;;;;;;;;;;5085988;28;20466;-54
2023/12/07 11:33:16;;;;;;;4.80;3.60;;;;;;;;;;5089310;28;20492;-55
2023/12/07 11:38:20;;;;;;;5.20;3.27;;;;;;;;;;5085846;27;21149;-55
2023/12/07 11:40:48;;;;;;;5.30;3.50;;;;;;;;;;5072529;28;20475;-56
2023/12/07 11:48:24;;;;;;;6.53;4.43;;;;;;;;;;5084277;27;20669;-55
2023/12/07 11:53:28;;;;;;;5.07;3.83;;;;;;;;;;5087373;27;20637;-53
2023/12/07 11:55:55;;;;;;;3.17;2.60;;;;;;;;;;5075254;28;20445;-53
2023/12/07 11:58:23;;;;;;;5.43;3.97;;;;;;;;;;5068617;28;20942;-54
2023/12/07 12:00:53;;;;;;;5.40;3.90;;;;;;;;;;5084561;28;20514;-54
2023/12/07 12:03:20;;;;;;;4.20;3.63;;;;;;;;;;5085776;28;20537;-53
2023/12/07 12:05:48;;;;;;;4.20;3.70;;;;;;;;;;5085824;28;20501;-53
2023/12/07 12:08:15;;;;;;;4.10;3.20;;;;;;;;;;5085136;28;20448;-54
2023/12/07 12:10:44;;;;;;;3.17;2.70;;;;;;;;;;5086450;28;20461;-54
2023/12/07 12:13:11;;;;;;;5.07;3.20;;;;;;;;;;5086263;28;20433;-55
2023/12/07 12:15:39;;;;;;;4.47;3.20;;;;;;;;;;5085439;28;20780;-55
2023/12/07 12:18:07;;;;;;;4.80;3.77;;;;;;;;;;5077612;28;20521;-54
2023/12/07 12:20:35;;;;;;;5.10;3.47;;;;;;;;;;5080468;28;20697;-54
2023/12/07 12:25:36;;;;;;;5.33;3.93;;;;;;;;;;5128163;27;20565;-54
2023/12/07 12:33:14;;;;;;;3.73;2.60;;;;;;;;;;5081667;27;21164;-55
2023/12/07 12:35:42;;;;;;;4.73;3.10;;;;;;;;;;5070686;28;20521;-54
2023/12/07 12:40:45;;;;;;;3.70;2.40;;;;;;;;;;5086824;27;20596;-57
2023/12/07 12:43:13;;;;;;;3.70;2.27;;;;;;;;;;5084003;28;20502;-52
2023/12/07 12:45:40;;;;;;;2.87;2.40;;;;;;;;;;5069197;28;20430;-54
2023/12/07 12:48:08;;;;;;;4.33;2.67;;;;;;;;;;5086208;28;20810;-54
2023/12/07 12:50:36;;;;;;;2.97;2.17;;;;;;;;;;5087422;28;20568;-54
2023/12/07 12:53:04;;;;;;;2.97;2.00;;;;;;;;;;5087124;28;20456;-55
2023/12/07 12:55:32;;;;;;;2.80;2.10;;;;;;;;;;5087300;28;20547;-54
2023/12/07 12:58:03;;;;;;;2.77;1.97;;;;;;;;;;5087330;28;20542;-55
2023/12/07 13:00:31;;;;;;;3.50;1.50;;;;;;;;;;5087179;28;20468;-53
2023/12/07 13:02:58;;;;;;;2.73;1.53;;;;;;;;;;5086478;28;20539;-54
2023/12/07 13:05:25;;;;;;;2.00;1.30;;;;;;;;;;5086628;28;20445;-55
2023/12/07 13:07:53;;;;;;;2.20;1.80;;;;;;;;;;5085761;28;20451;-54
2023/12/07 13:10:20;;;;;;;2.43;1.67;;;;;;;;;;5086498;28;20546;-55
2023/12/07 13:12:48;;;;;;;2.10;1.60;;;;;;;;;;5087139;28;20972;-56
2023/12/07 13:15:16;;;;;;;2.43;1.60;;;;;;;;;;5086764;28;20495;-53
2023/12/07 13:17:44;;;;;;;2.63;1.97;;;;;;;;;;5086724;28;20501;-56
2023/12/07 13:20:13;;;;;;;4.90;1.90;;;;;;;;;;5086636;28;20574;-53
2023/12/07 13:25:15;;;;;;;2.87;1.70;;;;;;;;;;5108106;27;20583;-53
2023/12/07 13:30:16;;;;;;;2.20;1.60;;;;;;;;;;5087183;27;20575;-54
2023/12/07 13:32:43;;;;;;;2.20;1.60;;;;;;;;;;5086702;28;20520;-53
2023/12/07 13:35:12;;;;;;;2.30;1.40;;;;;;;;;;5086543;28;20938;-55
2023/12/07 13:37:40;;;;;;;2.70;1.50;;;;;;;;;;5086754;28;20475;-54
2023/12/07 13:40:10;;;;;;;2.67;1.70;;;;;;;;;;5081399;28;20553;-54
2023/12/07 13:42:37;;;;;;;2.97;1.80;;;;;;;;;;5078750;28;20502;-56
2023/12/07 13:45:06;;;;;;;2.80;1.90;;;;;;;;;;5086150;28;20443;-54
2023/12/07 13:47:36;;;;;;;6.53;2.57;;;;;;;;;;5079465;28;20448;-55
2023/12/07 13:50:05;;;;;;;3.20;2.40;;;;;;;;;;5116155;22;20521;-55
2023/12/07 13:52:33;;;;;;;3.60;2.30;;;;;;;;;;5047186;28;20816;-55
2023/12/07 13:55:01;;;;;;;4.87;2.40;;;;;;;;;;5047754;28;20449;-55
2023/12/07 13:57:29;;;;;;;3.23;2.07;;;;;;;;;;5046544;28;20445;-55
2023/12/07 14:05:04;;;;;;;3.10;2.00;;;;;;;;;;5087693;27;20632;-56
2023/12/07 14:07:32;;;;;;;2.80;2.07;;;;;;;;;;5081994;28;20531;-55
2023/12/07 14:10:00;;;;;;;2.93;2.37;;;;;;;;;;5080797;28;20466;-55
2023/12/07 14:12:27;;;;;;;3.70;2.37;;;;;;;;;;5082741;28;20439;-55
2023/12/07 14:17:31;;;;;;;2.63;2.00;;;;;;;;;;5087488;27;20636;-56
2023/12/07 14:19:59;;;;;;;3.50;2.40;;;;;;;;;;5085131;28;20495;-56
2023/12/07 14:22:26;;;;;;;3.90;2.80;;;;;;;;;;5070801;28;20447;-55
2023/12/07 14:24:54;;;;;;;2.37;1.60;;;;;;;;;;5070308;28;20632;-57
2023/12/07 14:29:55;;;;;;;2.60;1.87;;;;;;;;;;5106461;27;21091;-56
2023/12/07 14:34:58;;;;;;;4.07;2.30;;;;;;;;;;5087185;27;21061;-55
2023/12/07 14:37:25;;;;;;;2.20;1.30;;;;;;;;;;5077374;28;20439;-56
2023/12/07 14:39:52;;;;;;;2.57;1.60;;;;;;;;;;5068895;28;20465;-55
2023/12/07 14:42:20;;;;;;;2.20;1.30;;;;;;;;;;5065558;28;20436;-56
2023/12/07 14:44:48;;;;;;;2.23;1.33;;;;;;;;;;5062957;28;20499;-55
2023/12/07 14:47:15;;;;;;;3.77;1.97;;;;;;;;;;5062272;28;20547;-55
2023/12/07 14:49:42;;;;;;;2.73;1.90;;;;;;;;;;5064433;28;20803;-55
2023/12/07 14:52:11;;;;;;;3.00;1.50;;;;;;;;;;5068633;28;20915;-54
2023/12/07 14:54:38;;;;;;;2.93;1.57;;;;;;;;;;5070139;28;21093;-55
2023/12/07 14:57:08;;;;;;;2.00;1.10;;;;;;;;;;5066850;28;20443;-54
2023/12/07 14:59:35;;;;;;;2.57;1.43;;;;;;;;;;5070346;28;20962;-55
2023/12/07 15:04:36;;;;;;;10.17;9.10;;;;;;;;;;5091550;27;20659;-56
2023/12/07 15:07:04;;;;;;;2.93;2.33;;;;;;;;;;5089229;28;20451;-54
2023/12/07 15:09:32;;;;;;;3.10;2.50;;;;;;;;;;5087436;28;20581;-54
2023/12/07 15:11:59;;;;;;;4.60;3.50;;;;;;;;;;5077111;28;20946;-56
2023/12/07 15:14:26;;;;;;;4.40;2.37;;;;;;;;;;5079709;28;20447;-54
2023/12/07 15:16:54;;;;;;;19.57;17.77;;;;;;;;;;5072256;28;20444;-56
2023/12/07 15:19:21;;;;;;;19.53;17.73;;;;;;;;;;5072116;28;20519;-56
2023/12/07 15:21:51;;;;;;;9.30;8.47;;;;;;;;;;5074181;28;20495;-54
2023/12/07 15:24:20;;;;;;;3.73;3.17;;;;;;;;;;5072264;28;21034;-55
2023/12/07 15:26:47;;;;;;;3.20;2.40;;;;;;;;;;5076398;28;20440;-55
2023/12/07 15:29:15;;;;;;;2.90;1.97;;;;;;;;;;5077891;28;20814;-56
2023/12/07 15:31:43;;;;;;;3.80;3.40;;;;;;;;;;5066174;28;20465;-55
2023/12/07 15:34:11;;;;;;;5.43;4.60;;;;;;;;;;5067501;28;20482;-54
2023/12/07 15:36:38;;;;;;;8.73;6.97;;;;;;;;;;5070467;28;20448;-54
2023/12/07 15:39:07;;;;;;;6.23;4.27;;;;;;;;;;5072814;28;20873;-55
2023/12/07 15:41:35;;;;;;;9.67;8.87;;;;;;;;;;5066625;28;20543;-55
2023/12/07 15:44:02;;;;;;;5.30;4.60;;;;;;;;;;5078106;28;20589;-54
2023/12/07 15:46:29;;;;;;;3.17;2.37;;;;;;;;;;5066075;28;20505;-54
2023/12/07 15:48:57;;;;;;;2.43;1.40;;;;;;;;;;5077309;28;20443;-54
2023/12/07 15:51:24;;;;;;;2.20;1.20;;;;;;;;;;5082695;28;20459;-54
2023/12/07 15:53:51;;;;;;;6.43;1.80;;;;;;;;;;5076674;28;20493;-54
2023/12/07 15:56:20;;;;;;;3.00;1.60;;;;;;;;;;5071330;28;20553;-54
2023/12/07 15:58:47;;;;;;;2.97;1.50;;;;;;;;;;5068303;28;20481;-56
2023/12/07 16:01:15;;;;;;;3.37;1.20;;;;;;;;;;5074879;28;20868;-54